Climatologie pour Saint-Brevin les Pins
Jour • Résumé pour février 7, 2017 Système :  Métrique    Anglais   Mixte
« - 1 jour
+ 1 jour »
Jour Semaine Mois Année Personnalisé
  Maximum : Minimum : Moyenne :
Température sous abri : 11.7 °C 4.6 °C 8.4 °C
Point de rosée : 10.2 °C 4.0 °C 7.3 °C
Humidité : 98 % 79 % 93 %
Vitesse du vent : 24.1 km/h 0.0 km/h 6 km/h
Rafale : 35.4 km/h - -
Direction :- - WNW
Pression : 1021.2 hPa 1014.1 hPa -
Précipitations : 0.3 mm    
Historical Graphs
 
 
Tableau de données pour février 7, 2017
Heure Tempé Pt rosée Pression Vent Vitesse Rafale Humidité Taux pluie (/hr) Soleil
00:00 10.5 °C 10.2 °C 1014.1 hPa WSW 11.3 km/h 19.3 km/h 98 % 1.3 mm 0 W/m2
00:10 10.4 °C 10.1 °C 1014.1 hPa WNW 16.1 km/h 19.3 km/h 98 % 1.0 mm 0 W/m2
00:15 10.4 °C 10.1 °C 1014.1 hPa NW 1.6 km/h 17.7 km/h 98 % 1.0 mm 0 W/m2
00:20 10.4 °C 10.1 °C 1014.1 hPa WNW 9.7 km/h 17.7 km/h 98 % 0.8 mm 0 W/m2
00:25 10.4 °C 10.1 °C 1014.1 hPa WNW 3.2 km/h 16.1 km/h 98 % 0.8 mm 0 W/m2
00:30 10.4 °C 10.1 °C 1014.1 hPa WSW 9.7 km/h 16.1 km/h 98 % 0.8 mm 0 W/m2
00:35 10.3 °C 10.0 °C 1014.4 hPa NW 4.8 km/h 16.1 km/h 98 % 0.5 mm 0 W/m2
00:40 10.3 °C 10.0 °C 1014.4 hPa West 6.4 km/h 12.9 km/h 98 % 0.5 mm 0 W/m2
00:45 10.3 °C 10.0 °C 1014.4 hPa West 8.0 km/h 16.1 km/h 98 % 0.0 mm 0 W/m2
00:50 10.2 °C 9.9 °C 1014.4 hPa NW 8.0 km/h 16.1 km/h 98 % 0.0 mm 0 W/m2
00:55 10.2 °C 9.9 °C 1014.4 hPa West 4.8 km/h 16.1 km/h 98 % 0.0 mm 0 W/m2
01:00 10.1 °C 9.8 °C 1014.8 hPa West 3.2 km/h 16.1 km/h 98 % 0.0 mm 0 W/m2
01:05 10.1 °C 9.8 °C 1014.8 hPa WNW 6.4 km/h 11.3 km/h 98 % 0.0 mm 0 W/m2
01:10 10.1 °C 9.8 °C 1014.8 hPa WNW 1.6 km/h 11.3 km/h 98 % 0.0 mm 0 W/m2
01:15 10.1 °C 9.8 °C 1014.8 hPa West 6.4 km/h 12.9 km/h 98 % 0.0 mm 0 W/m2
01:20 10.1 °C 9.8 °C 1014.8 hPa West 3.2 km/h 14.5 km/h 98 % 0.0 mm 0 W/m2
01:25 10.1 °C 9.8 °C 1014.8 hPa WNW 4.8 km/h 14.5 km/h 98 % 0.0 mm 0 W/m2
01:30 10.1 °C 9.8 °C 1014.8 hPa West 8.0 km/h 14.5 km/h 98 % 0.0 mm 0 W/m2
01:35 10.2 °C 9.9 °C 1014.8 hPa WNW 12.9 km/h 16.1 km/h 98 % 0.0 mm 0 W/m2
01:40 10.2 °C 9.9 °C 1014.8 hPa WNW 6.4 km/h 17.7 km/h 98 % 0.0 mm 0 W/m2
01:45 10.3 °C 10.0 °C 1014.8 hPa WNW 4.8 km/h 17.7 km/h 98 % 0.0 mm 0 W/m2
01:50 10.3 °C 10.0 °C 1014.8 hPa West 4.8 km/h 16.1 km/h 98 % 0.0 mm 0 W/m2
01:55 10.3 °C 10.0 °C 1014.8 hPa WNW 9.7 km/h 16.1 km/h 98 % 0.0 mm 0 W/m2
02:00 10.3 °C 10.0 °C 1015.1 hPa West 3.2 km/h 16.1 km/h 98 % 0.0 mm 0 W/m2
02:05 10.3 °C 10.0 °C 1014.8 hPa West 6.4 km/h 17.7 km/h 98 % 0.0 mm 0 W/m2
02:10 10.3 °C 10.0 °C 1014.8 hPa West 3.2 km/h 17.7 km/h 98 % 0.0 mm 0 W/m2
02:15 10.3 °C 10.0 °C 1015.1 hPa West 8.0 km/h 16.1 km/h 98 % 0.0 mm 0 W/m2
02:20 10.3 °C 10.0 °C 1015.1 hPa West 6.4 km/h 14.5 km/h 98 % 0.0 mm 0 W/m2
02:25 10.3 °C 10.0 °C 1015.1 hPa West 9.7 km/h 14.5 km/h 98 % 0.0 mm 0 W/m2
02:30 10.3 °C 10.0 °C 1015.1 hPa WNW 4.8 km/h 14.5 km/h 98 % 0.0 mm 0 W/m2
02:35 10.3 °C 10.0 °C 1015.1 hPa West 9.7 km/h 12.9 km/h 98 % 0.0 mm 0 W/m2
02:40 10.3 °C 10.0 °C 1015.1 hPa WNW 8.0 km/h 12.9 km/h 98 % 0.0 mm 0 W/m2
02:45 10.3 °C 10.0 °C 1015.1 hPa NW 4.8 km/h 17.7 km/h 98 % 0.0 mm 0 W/m2
02:50 10.3 °C 10.0 °C 1015.1 hPa NW 3.2 km/h 17.7 km/h 98 % 0.0 mm 0 W/m2
02:55 10.4 °C 10.1 °C 1015.5 hPa WNW 6.4 km/h 19.3 km/h 98 % 0.0 mm 0 W/m2
03:00 10.4 °C 10.1 °C 1015.5 hPa WNW 12.9 km/h 19.3 km/h 98 % 0.0 mm 0 W/m2
03:05 10.5 °C 10.2 °C 1015.5 hPa NW 14.5 km/h 19.3 km/h 98 % 0.0 mm 0 W/m2
03:10 10.5 °C 10.2 °C 1015.5 hPa WNW 11.3 km/h 20.9 km/h 98 % 0.0 mm 0 W/m2
03:15 10.5 °C 10.2 °C 1015.5 hPa NW 14.5 km/h 20.9 km/h 98 % 0.0 mm 0 W/m2
03:20 10.4 °C 10.1 °C 1015.5 hPa WNW 8.0 km/h 20.9 km/h 98 % 0.0 mm 0 W/m2
03:25 10.4 °C 10.1 °C 1015.5 hPa West 4.8 km/h 20.9 km/h 98 % 0.0 mm 0 W/m2
03:30 10.4 °C 10.1 °C 1015.5 hPa NW 12.9 km/h 20.9 km/h 98 % 0.0 mm 0 W/m2
03:35 10.4 °C 10.1 °C 1015.5 hPa WNW 9.7 km/h 19.3 km/h 98 % 0.0 mm 0 W/m2
03:40 10.4 °C 10.1 °C 1015.5 hPa WNW 12.9 km/h 20.9 km/h 98 % 0.0 mm 0 W/m2
03:45 10.4 °C 10.1 °C 1015.5 hPa West 16.1 km/h 25.7 km/h 98 % 0.0 mm 0 W/m2
03:50 10.4 °C 10.1 °C 1015.5 hPa NNW 9.7 km/h 25.7 km/h 98 % 0.0 mm 0 W/m2
03:55 10.4 °C 10.1 °C 1015.5 hPa WNW 11.3 km/h 24.1 km/h 98 % 0.0 mm 0 W/m2
04:00 10.3 °C 10.0 °C 1015.5 hPa NNW 17.7 km/h 24.1 km/h 98 % 0.0 mm 0 W/m2
04:05 10.3 °C 10.0 °C 1015.5 hPa WNW 19.3 km/h 24.1 km/h 98 % 0.0 mm 0 W/m2
04:10 10.2 °C 9.9 °C 1015.5 hPa WNW 9.7 km/h 20.9 km/h 98 % 0.0 mm 0 W/m2
04:20 10.0 °C 9.7 °C 1015.8 hPa NW 17.7 km/h 24.1 km/h 98 % 0.0 mm 0 W/m2
04:25 9.9 °C 9.6 °C 1015.8 hPa West 17.7 km/h 24.1 km/h 98 % 0.0 mm 0 W/m2
04:30 9.9 °C 9.6 °C 1015.8 hPa NW 12.9 km/h 27.4 km/h 98 % 0.0 mm 0 W/m2
04:40 9.7 °C 9.4 °C 1015.8 hPa North 14.5 km/h 35.4 km/h 98 % 0.0 mm 0 W/m2
04:45 9.6 °C 9.3 °C 1015.8 hPa WNW 24.1 km/h 35.4 km/h 98 % 0.0 mm 0 W/m2
04:50 9.5 °C 9.2 °C 1015.8 hPa NW 11.3 km/h 29.0 km/h 98 % 0.0 mm 0 W/m2
04:55 9.4 °C 9.1 °C 1015.8 hPa NNW 9.7 km/h 27.4 km/h 98 % 0.0 mm 0 W/m2
05:00 9.3 °C 9.0 °C 1015.8 hPa WNW 9.7 km/h 27.4 km/h 98 % 0.0 mm 0 W/m2
05:05 9.2 °C 8.9 °C 1015.8 hPa NNW 12.9 km/h 27.4 km/h 98 % 0.0 mm 0 W/m2
05:10 9.1 °C 8.8 °C 1016.1 hPa NW 8.0 km/h 27.4 km/h 98 % 0.0 mm 0 W/m2
05:15 9.0 °C 8.7 °C 1016.1 hPa West 19.3 km/h 27.4 km/h 98 % 0.0 mm 0 W/m2
05:20 8.9 °C 8.6 °C 1016.1 hPa WNW 11.3 km/h 22.5 km/h 98 % 0.0 mm 0 W/m2
05:25 8.9 °C 8.6 °C 1016.1 hPa WNW 6.4 km/h 22.5 km/h 98 % 0.0 mm 0 W/m2
05:30 8.8 °C 8.4 °C 1016.5 hPa NW 8.0 km/h 20.9 km/h 97 % 0.0 mm 0 W/m2
05:35 8.8 °C 8.3 °C 1016.5 hPa WNW 3.2 km/h 24.1 km/h 97 % 0.0 mm 0 W/m2
05:40 8.7 °C 8.3 °C 1016.5 hPa NW 6.4 km/h 24.1 km/h 97 % 0.0 mm 0 W/m2
05:45 8.6 °C 8.3 °C 1016.5 hPa WNW 12.9 km/h 20.9 km/h 98 % 0.0 mm 0 W/m2
05:50 8.5 °C 8.2 °C 1016.8 hPa NNW 9.7 km/h 24.1 km/h 98 % 0.0 mm 0 W/m2
05:55 8.4 °C 8.0 °C 1016.8 hPa WNW 11.3 km/h 24.1 km/h 97 % 0.0 mm 0 W/m2
06:00 8.3 °C 7.9 °C 1016.8 hPa NW 6.4 km/h 22.5 km/h 97 % 0.0 mm 0 W/m2
06:05 8.3 °C 7.8 °C 1016.8 hPa NW 12.9 km/h 22.5 km/h 97 % 0.0 mm 0 W/m2
06:10 8.2 °C 7.7 °C 1016.8 hPa NW 17.7 km/h 20.9 km/h 97 % 0.0 mm 0 W/m2
06:15 8.2 °C 7.7 °C 1016.8 hPa WNW 8.0 km/h 20.9 km/h 97 % 0.0 mm 0 W/m2
06:20 8.1 °C 7.7 °C 1016.8 hPa WNW 9.7 km/h 20.9 km/h 97 % 0.0 mm 0 W/m2
06:25 8.0 °C 7.6 °C 1016.8 hPa NW 14.5 km/h 19.3 km/h 97 % 0.0 mm 0 W/m2
06:30 7.9 °C 7.5 °C 1016.8 hPa WNW 3.2 km/h 17.7 km/h 97 % 0.0 mm 0 W/m2
06:35 7.8 °C 7.4 °C 1017.2 hPa WNW 11.3 km/h 20.9 km/h 97 % 0.0 mm 0 W/m2
06:40 7.8 °C 7.3 °C 1017.2 hPa WNW 6.4 km/h 20.9 km/h 97 % 0.0 mm 0 W/m2
06:45 7.7 °C 7.3 °C 1017.2 hPa WNW 12.9 km/h 20.9 km/h 97 % 0.0 mm 0 W/m2
06:50 7.7 °C 7.2 °C 1017.2 hPa NW 6.4 km/h 19.3 km/h 97 % 0.0 mm 0 W/m2
06:55 7.6 °C 7.2 °C 1017.2 hPa NW 4.8 km/h 19.3 km/h 97 % 0.0 mm 0 W/m2
07:00 7.6 °C 7.2 °C 1017.2 hPa NW 6.4 km/h 19.3 km/h 97 % 0.0 mm 0 W/m2
07:05 7.6 °C 7.1 °C 1017.2 hPa WNW 6.4 km/h 16.1 km/h 97 % 0.0 mm 0 W/m2
07:10 7.5 °C 7.1 °C 1017.2 hPa WNW 6.4 km/h 14.5 km/h 97 % 0.0 mm 0 W/m2
07:15 7.4 °C 7.0 °C 1017.2 hPa WNW 6.4 km/h 14.5 km/h 97 % 0.0 mm 0 W/m2
07:20 7.4 °C 6.9 °C 1017.2 hPa WNW 3.2 km/h 14.5 km/h 97 % 0.0 mm 0 W/m2
07:25 7.3 °C 6.9 °C 1017.5 hPa NW 11.3 km/h 12.9 km/h 97 % 0.0 mm 0 W/m2
07:30 7.3 °C 6.8 °C 1017.5 hPa NW 4.8 km/h 12.9 km/h 97 % 0.0 mm 0 W/m2
07:35 7.2 °C 6.6 °C 1017.5 hPa NW 6.4 km/h 12.9 km/h 96 % 0.0 mm 0 W/m2
07:40 7.2 °C 6.6 °C 1017.5 hPa West 3.2 km/h 16.1 km/h 96 % 0.0 mm 0 W/m2
07:45 7.1 °C 6.6 °C 1017.5 hPa NNW 6.4 km/h 16.1 km/h 97 % 0.0 mm 0 W/m2
07:50 7.0 °C 6.4 °C 1017.8 hPa WNW 6.4 km/h 12.9 km/h 96 % 0.0 mm 0 W/m2
07:55 7.0 °C 6.6 °C 1017.8 hPa WNW 4.8 km/h 12.9 km/h 97 % 0.0 mm 0 W/m2
08:00 6.9 °C 6.4 °C 1017.8 hPa WNW 4.8 km/h 11.3 km/h 96 % 0.0 mm 0 W/m2
08:05 6.9 °C 6.3 °C 1017.8 hPa West 1.6 km/h 11.3 km/h 96 % 0.0 mm 0 W/m2
08:10 6.8 °C 6.2 °C 1017.8 hPa WNW 4.8 km/h 9.7 km/h 96 % 0.0 mm 0 W/m2
08:15 6.8 °C 6.2 °C 1017.8 hPa WNW 3.2 km/h 9.7 km/h 96 % 0.0 mm 0 W/m2
08:20 6.7 °C 6.1 °C 1018.2 hPa WNW 1.6 km/h 8.0 km/h 96 % 0.0 mm 0 W/m2
08:25 6.6 °C 6.0 °C 1018.2 hPa WNW 3.2 km/h 8.0 km/h 96 % 0.0 mm 0 W/m2
08:30 6.5 °C 5.9 °C 1018.2 hPa WNW 6.4 km/h 8.0 km/h 96 % 0.0 mm 5 W/m2
08:35 6.4 °C 5.8 °C 1018.2 hPa WNW 3.2 km/h 8.0 km/h 96 % 0.0 mm 9 W/m2
08:40 6.3 °C 5.7 °C 1018.2 hPa WNW 3.2 km/h 9.7 km/h 96 % 0.0 mm 12 W/m2
08:45 6.2 °C 5.6 °C 1018.2 hPa WNW 1.6 km/h 9.7 km/h 96 % 0.0 mm 16 W/m2
08:50 6.2 °C 5.6 °C 1018.5 hPa Calm   6.4 km/h 96 % 0.0 mm 19 W/m2
08:55 6.1 °C 5.5 °C 1018.5 hPa WNW 3.2 km/h 8.0 km/h 96 % 0.0 mm 23 W/m2
09:00 6.1 °C 5.5 °C 1018.5 hPa Calm   8.0 km/h 96 % 0.0 mm 26 W/m2
09:05 6.0 °C 5.4 °C 1018.5 hPa WNW 3.2 km/h 9.7 km/h 96 % 0.0 mm 28 W/m2
09:10 6.0 °C 5.4 °C 1018.5 hPa WNW 3.2 km/h 9.7 km/h 96 % 0.0 mm 30 W/m2
09:15 5.9 °C 5.4 °C 1018.5 hPa WNW 1.6 km/h 4.8 km/h 96 % 0.0 mm 33 W/m2
09:20 5.9 °C 5.3 °C 1018.5 hPa Calm   4.8 km/h 96 % 0.0 mm 37 W/m2
09:25 5.9 °C 5.3 °C 1018.5 hPa Calm   3.2 km/h 96 % 0.0 mm 35 W/m2
09:30 5.9 °C 5.3 °C 1018.5 hPa Calm   4.8 km/h 96 % 0.0 mm 35 W/m2
09:35 5.9 °C 5.3 °C 1018.5 hPa Calm   4.8 km/h 96 % 0.0 mm 40 W/m2
09:40 5.9 °C 5.4 °C 1018.5 hPa Calm   4.8 km/h 96 % 0.0 mm 42 W/m2
09:45 6.0 °C 5.4 °C 1018.5 hPa WNW 1.6 km/h 3.2 km/h 96 % 0.0 mm 47 W/m2
09:50 6.1 °C 5.7 °C 1018.5 hPa WNW 3.2 km/h 4.8 km/h 97 % 0.0 mm 47 W/m2
09:55 6.2 °C 5.8 °C 1018.8 hPa West 4.8 km/h 6.4 km/h 97 % 0.0 mm 49 W/m2
10:00 6.4 °C 5.9 °C 1018.8 hPa West 3.2 km/h 8.0 km/h 97 % 0.0 mm 51 W/m2
10:05 6.6 °C 6.2 °C 1018.8 hPa WSW 4.8 km/h 9.7 km/h 97 % 0.0 mm 53 W/m2
10:10 6.9 °C 6.5 °C 1018.8 hPa WSW 3.2 km/h 9.7 km/h 97 % 0.0 mm 192 W/m2
10:15 7.9 °C 7.6 °C 1018.8 hPa WSW 6.4 km/h 6.4 km/h 98 % 0.0 mm 216 W/m2
10:20 8.3 °C 7.9 °C 1018.8 hPa WNW 3.2 km/h 9.7 km/h 97 % 0.0 mm 225 W/m2
10:25 8.6 °C 8.0 °C 1018.8 hPa Calm   9.7 km/h 96 % 0.0 mm 239 W/m2
10:30 8.8 °C 8.0 °C 1018.8 hPa Calm   6.4 km/h 95 % 0.0 mm 260 W/m2
10:35 9.0 °C 8.1 °C 1018.8 hPa West 6.4 km/h 8.0 km/h 94 % 0.0 mm 271 W/m2
10:40 9.3 °C 8.2 °C 1018.8 hPa WSW 6.4 km/h 12.9 km/h 93 % 0.0 mm 276 W/m2
10:45 9.6 °C 8.3 °C 1018.8 hPa WNW 1.6 km/h 12.9 km/h 92 % 0.0 mm 292 W/m2
10:50 9.8 °C 8.3 °C 1019.2 hPa NW 9.7 km/h 12.9 km/h 90 % 0.0 mm 304 W/m2
10:55 10.0 °C 8.3 °C 1019.2 hPa WNW 4.8 km/h 12.9 km/h 89 % 0.0 mm 311 W/m2
11:00 10.2 °C 8.3 °C 1019.2 hPa WNW 4.8 km/h 11.3 km/h 88 % 0.0 mm 316 W/m2
11:05 10.3 °C 8.4 °C 1019.2 hPa NW 8.0 km/h 11.3 km/h 88 % 0.0 mm 323 W/m2
11:10 10.4 °C 8.2 °C 1019.2 hPa WNW 8.0 km/h 12.9 km/h 86 % 0.0 mm 329 W/m2
11:15 10.6 °C 8.1 °C 1019.2 hPa WNW 4.8 km/h 12.9 km/h 85 % 0.0 mm 341 W/m2
11:20 10.7 °C 8.2 °C 1019.2 hPa WNW 4.8 km/h 11.3 km/h 85 % 0.0 mm 348 W/m2
11:25 10.8 °C 8.2 °C 1019.2 hPa WNW 6.4 km/h 8.0 km/h 84 % 0.0 mm 357 W/m2
11:30 10.8 °C 8.2 °C 1019.2 hPa West 4.8 km/h 11.3 km/h 84 % 0.0 mm 352 W/m2
11:35 10.8 °C 8.2 °C 1019.2 hPa West 6.4 km/h 11.3 km/h 84 % 0.0 mm 323 W/m2
11:40 10.7 °C 8.3 °C 1019.2 hPa WNW 1.6 km/h 11.3 km/h 85 % 0.0 mm 352 W/m2
11:45 10.7 °C 8.0 °C 1019.2 hPa WSW 9.7 km/h 11.3 km/h 83 % 0.0 mm 330 W/m2
11:50 10.8 °C 8.2 °C 1019.2 hPa West 6.4 km/h 11.3 km/h 84 % 0.0 mm 299 W/m2
11:55 10.7 °C 8.1 °C 1019.2 hPa WSW 8.0 km/h 9.7 km/h 84 % 0.0 mm 265 W/m2
12:00 10.5 °C 7.9 °C 1019.2 hPa WSW 4.8 km/h 12.9 km/h 84 % 0.0 mm 294 W/m2
12:05 10.4 °C 8.0 °C 1019.2 hPa West 11.3 km/h 12.9 km/h 85 % 0.0 mm 311 W/m2
12:10 10.4 °C 7.7 °C 1019.5 hPa WSW 9.7 km/h 12.9 km/h 83 % 0.0 mm 332 W/m2
12:15 10.4 °C 7.8 °C 1019.5 hPa WSW 9.7 km/h 14.5 km/h 84 % 0.0 mm 283 W/m2
12:20 10.4 °C 7.8 °C 1019.2 hPa West 6.4 km/h 14.5 km/h 84 % 0.0 mm 338 W/m2
12:25 10.5 °C 7.6 °C 1019.2 hPa WSW 8.0 km/h 14.5 km/h 82 % 0.0 mm 338 W/m2
12:30 10.7 °C 7.7 °C 1019.2 hPa SW 6.4 km/h 14.5 km/h 82 % 0.0 mm 359 W/m2
12:35 10.8 °C 7.6 °C 1019.5 hPa West 4.8 km/h 12.9 km/h 81 % 0.0 mm 366 W/m2
12:40 10.9 °C 8.2 °C 1019.5 hPa WSW 3.2 km/h 12.9 km/h 83 % 0.0 mm 367 W/m2
12:45 11.1 °C 8.1 °C 1019.5 hPa WSW 6.4 km/h 12.9 km/h 82 % 0.0 mm 360 W/m2
12:50 10.8 °C 7.5 °C 1019.5 hPa West 3.2 km/h 14.5 km/h 80 % 0.0 mm 357 W/m2
12:55 10.9 °C 8.3 °C 1019.2 hPa SW 3.2 km/h 14.5 km/h 84 % 0.0 mm 346 W/m2
13:00 11.1 °C 8.3 °C 1019.2 hPa WSW 11.3 km/h 11.3 km/h 83 % 0.0 mm 359 W/m2
13:05 11.2 °C 8.1 °C 1019.2 hPa WSW 4.8 km/h 12.9 km/h 81 % 0.0 mm 345 W/m2
13:10 11.2 °C 8.1 °C 1019.2 hPa WSW 6.4 km/h 12.9 km/h 81 % 0.0 mm 334 W/m2
13:15 11.3 °C 7.8 °C 1019.2 hPa SW 6.4 km/h 16.1 km/h 79 % 0.0 mm 357 W/m2
13:20 11.0 °C 7.9 °C 1019.2 hPa WSW 9.7 km/h 16.1 km/h 81 % 0.0 mm 378 W/m2
13:25 10.9 °C 8.0 °C 1019.2 hPa WNW 6.4 km/h 14.5 km/h 82 % 0.0 mm 369 W/m2
13:30 10.8 °C 8.1 °C 1019.2 hPa WSW 8.0 km/h 14.5 km/h 83 % 0.0 mm 253 W/m2
13:35 10.7 °C 8.2 °C 1018.8 hPa WSW 6.4 km/h 14.5 km/h 85 % 0.0 mm 294 W/m2
13:40 10.6 °C 8.1 °C 1018.8 hPa WSW 8.0 km/h 14.5 km/h 85 % 0.0 mm 297 W/m2
13:45 10.7 °C 8.4 °C 1018.8 hPa West 4.8 km/h 17.7 km/h 86 % 0.0 mm 292 W/m2
13:50 10.7 °C 8.5 °C 1018.8 hPa WSW 6.4 km/h 20.9 km/h 86 % 0.0 mm 309 W/m2
13:55 10.9 °C 8.5 °C 1018.8 hPa West 8.0 km/h 20.9 km/h 85 % 0.0 mm 490 W/m2
14:00 11.6 °C 9.2 °C 1018.5 hPa NW 4.8 km/h 19.3 km/h 85 % 0.0 mm 341 W/m2
14:05 11.5 °C 8.5 °C 1018.5 hPa West 11.3 km/h 12.9 km/h 82 % 0.0 mm 394 W/m2
14:10 11.3 °C 8.5 °C 1018.5 hPa West 8.0 km/h 14.5 km/h 83 % 0.0 mm 434 W/m2
14:15 11.6 °C 8.6 °C 1018.5 hPa WSW 9.7 km/h 16.1 km/h 82 % 0.3 mm 392 W/m2
14:20 11.7 °C 8.7 °C 1018.5 hPa WSW 11.3 km/h 16.1 km/h 82 % 0.3 mm 388 W/m2
14:30 11.1 °C 8.5 °C 1018.5 hPa WSW 6.4 km/h 14.5 km/h 84 % 0.3 mm 294 W/m2
14:35 10.7 °C 8.1 °C 1018.2 hPa WSW 9.7 km/h 17.7 km/h 84 % 0.3 mm 250 W/m2
14:40 10.7 °C 8.2 °C 1018.2 hPa WSW 9.7 km/h 17.7 km/h 85 % 0.3 mm 244 W/m2
14:45 10.7 °C 8.4 °C 1018.2 hPa West 6.4 km/h 16.1 km/h 86 % 0.3 mm 329 W/m2
14:50 10.7 °C 8.5 °C 1018.2 hPa WSW 12.9 km/h 16.1 km/h 86 % 0.3 mm 257 W/m2
14:55 10.7 °C 8.5 °C 1018.2 hPa West 12.9 km/h 17.7 km/h 86 % 0.3 mm 118 W/m2
15:00 10.4 °C 8.2 °C 1018.2 hPa West 8.0 km/h 17.7 km/h 86 % 0.3 mm 116 W/m2
15:05 10.3 °C 8.2 °C 1018.2 hPa West 12.9 km/h 20.9 km/h 87 % 0.3 mm 216 W/m2
15:10 10.3 °C 8.4 °C 1018.2 hPa WSW 11.3 km/h 20.9 km/h 88 % 0.3 mm 176 W/m2
15:15 10.3 °C 8.3 °C 1018.2 hPa NW 6.4 km/h 17.7 km/h 87 % 0.0 mm 144 W/m2
15:20 10.2 °C 7.8 °C 1018.2 hPa WNW 6.4 km/h 19.3 km/h 85 % 0.0 mm 132 W/m2
15:25 10.2 °C 7.8 °C 1018.2 hPa NW 8.0 km/h 19.3 km/h 85 % 0.0 mm 114 W/m2
15:30 10.0 °C 6.9 °C 1018.5 hPa NW 16.1 km/h 29.0 km/h 81 % 0.0 mm 88 W/m2
15:35 9.8 °C 7.1 °C 1018.2 hPa NNW 12.9 km/h 29.0 km/h 83 % 0.0 mm 79 W/m2
15:40 9.6 °C 7.0 °C 1018.5 hPa NW 12.9 km/h 29.0 km/h 84 % 0.0 mm 95 W/m2
15:45 9.3 °C 6.9 °C 1018.5 hPa NW 6.4 km/h 29.0 km/h 85 % 0.0 mm 127 W/m2
15:50 9.2 °C 6.7 °C 1018.5 hPa WNW 9.7 km/h 24.1 km/h 84 % 0.0 mm 135 W/m2
15:55 9.1 °C 6.7 °C 1018.5 hPa NW 1.6 km/h 19.3 km/h 85 % 0.0 mm 132 W/m2
16:00 9.0 °C 6.4 °C 1018.5 hPa NNW 9.7 km/h 17.7 km/h 84 % 0.0 mm 109 W/m2
16:05 9.0 °C 6.6 °C 1018.5 hPa WNW 9.7 km/h 17.7 km/h 85 % 0.0 mm 83 W/m2
16:10 8.7 °C 6.2 °C 1018.5 hPa WNW 9.7 km/h 17.7 km/h 84 % 0.0 mm 76 W/m2
16:15 8.6 °C 6.3 °C 1018.5 hPa West 1.6 km/h 14.5 km/h 86 % 0.0 mm 77 W/m2
16:20 8.6 °C 6.5 °C 1018.5 hPa WNW 4.8 km/h 9.7 km/h 87 % 0.0 mm 62 W/m2
16:25 8.6 °C 6.7 °C 1018.5 hPa WNW 3.2 km/h 8.0 km/h 88 % 0.0 mm 54 W/m2
16:30 8.6 °C 6.7 °C 1018.8 hPa WNW 3.2 km/h 11.3 km/h 88 % 0.0 mm 53 W/m2
16:35 8.5 °C 6.6 °C 1018.8 hPa WNW 6.4 km/h 11.3 km/h 88 % 0.0 mm 46 W/m2
16:40 8.4 °C 6.6 °C 1018.8 hPa NW 1.6 km/h 6.4 km/h 88 % 0.0 mm 44 W/m2
16:45 8.4 °C 6.3 °C 1018.5 hPa WNW 6.4 km/h 6.4 km/h 87 % 0.0 mm 44 W/m2
16:50 8.3 °C 6.3 °C 1018.8 hPa Calm   6.4 km/h 87 % 0.0 mm 30 W/m2
16:55 8.3 °C 6.3 °C 1018.8 hPa West 4.8 km/h 9.7 km/h 87 % 0.0 mm 28 W/m2
17:00 8.3 °C 6.2 °C 1018.8 hPa West 8.0 km/h 9.7 km/h 87 % 0.0 mm 25 W/m2
17:05 8.2 °C 6.2 °C 1018.8 hPa West 4.8 km/h 11.3 km/h 87 % 0.0 mm 18 W/m2
17:10 8.2 °C 6.3 °C 1018.8 hPa WNW 4.8 km/h 12.9 km/h 88 % 0.0 mm 16 W/m2
17:15 8.0 °C 6.3 °C 1018.8 hPa WNW 9.7 km/h 12.9 km/h 89 % 0.0 mm 14 W/m2
17:20 7.8 °C 6.1 °C 1018.8 hPa WSW 4.8 km/h 12.9 km/h 89 % 0.0 mm 12 W/m2
17:25 7.7 °C 6.2 °C 1018.8 hPa WSW 3.2 km/h 9.7 km/h 90 % 0.0 mm 12 W/m2
17:30 7.7 °C 6.1 °C 1018.8 hPa SW 4.8 km/h 9.7 km/h 90 % 0.0 mm 11 W/m2
17:35 7.6 °C 6.2 °C 1018.8 hPa West 4.8 km/h 8.0 km/h 91 % 0.0 mm 11 W/m2
17:40 7.6 °C 6.2 °C 1018.8 hPa WSW 8.0 km/h 8.0 km/h 91 % 0.0 mm 11 W/m2
17:45 7.6 °C 6.2 °C 1018.8 hPa WSW 3.2 km/h 9.7 km/h 91 % 0.0 mm 9 W/m2
17:50 7.6 °C 6.2 °C 1018.8 hPa WSW 1.6 km/h 9.7 km/h 91 % 0.0 mm 7 W/m2
17:55 7.5 °C 6.1 °C 1018.8 hPa WSW 1.6 km/h 8.0 km/h 91 % 0.0 mm 7 W/m2
18:00 7.4 °C 6.1 °C 1018.8 hPa WSW 1.6 km/h 4.8 km/h 91 % 0.0 mm 5 W/m2
18:05 7.4 °C 6.2 °C 1018.8 hPa WNW 3.2 km/h 6.4 km/h 92 % 0.0 mm 0 W/m2
18:10 7.3 °C 6.0 °C 1018.8 hPa West 1.6 km/h 6.4 km/h 91 % 0.0 mm 0 W/m2
18:15 7.2 °C 5.9 °C 1018.8 hPa Calm   8.0 km/h 91 % 0.0 mm 0 W/m2
18:20 7.1 °C 5.7 °C 1018.8 hPa WSW 3.2 km/h 8.0 km/h 91 % 0.0 mm 0 W/m2
18:25 7.1 °C 5.7 °C 1018.8 hPa WSW 1.6 km/h 9.7 km/h 91 % 0.0 mm 0 W/m2
18:30 7.1 °C 5.7 °C 1019.2 hPa Calm   9.7 km/h 91 % 0.0 mm 0 W/m2
18:40 7.0 °C 5.8 °C 1018.8 hPa Calm   6.4 km/h 92 % 0.0 mm 0 W/m2
18:45 7.0 °C 5.8 °C 1019.2 hPa Calm   6.4 km/h 92 % 0.0 mm 0 W/m2
18:50 6.9 °C 5.7 °C 1019.2 hPa WSW 3.2 km/h 8.0 km/h 92 % 0.0 mm 0 W/m2
18:55 6.9 °C 5.7 °C 1019.2 hPa WSW 1.6 km/h 8.0 km/h 92 % 0.0 mm 0 W/m2
19:00 6.9 °C 5.9 °C 1019.2 hPa WSW 3.2 km/h 6.4 km/h 93 % 0.0 mm 0 W/m2
19:05 6.8 °C 5.8 °C 1019.2 hPa Calm   6.4 km/h 93 % 0.0 mm 0 W/m2
19:10 6.8 °C 5.7 °C 1019.2 hPa WSW 1.6 km/h 4.8 km/h 93 % 0.0 mm 0 W/m2
19:15 6.7 °C 5.7 °C 1019.2 hPa WSW 1.6 km/h 6.4 km/h 93 % 0.0 mm 0 W/m2
19:20 6.7 °C 5.7 °C 1019.2 hPa Calm   6.4 km/h 93 % 0.0 mm 0 W/m2
19:25 6.7 °C 5.7 °C 1019.2 hPa WSW 3.2 km/h 4.8 km/h 93 % 0.0 mm 0 W/m2
19:30 6.7 °C 5.6 °C 1019.5 hPa WSW 1.6 km/h 4.8 km/h 93 % 0.0 mm 0 W/m2
19:35 6.6 °C 5.7 °C 1019.5 hPa Calm   3.2 km/h 94 % 0.0 mm 0 W/m2
19:40 6.4 °C 5.5 °C 1019.5 hPa WSW 1.6 km/h 4.8 km/h 94 % 0.0 mm 0 W/m2
19:45 6.4 °C 5.5 °C 1019.5 hPa WSW 1.6 km/h 4.8 km/h 94 % 0.0 mm 0 W/m2
19:50 6.6 °C 5.8 °C 1019.5 hPa Calm   4.8 km/h 95 % 0.0 mm 0 W/m2
19:55 6.6 °C 5.7 °C 1019.5 hPa Calm   4.8 km/h 94 % 0.0 mm 0 W/m2
20:00 6.6 °C 5.8 °C 1019.5 hPa WSW 1.6 km/h 4.8 km/h 95 % 0.0 mm 0 W/m2
20:05 6.5 °C 5.8 °C 1019.5 hPa Calm   4.8 km/h 95 % 0.0 mm 0 W/m2
20:10 6.6 °C 5.8 °C 1019.5 hPa WSW 1.6 km/h 4.8 km/h 95 % 0.0 mm 0 W/m2
20:15 6.6 °C 5.8 °C 1019.5 hPa WSW 1.6 km/h 4.8 km/h 95 % 0.0 mm 0 W/m2
20:20 6.5 °C 5.8 °C 1019.5 hPa Calm   4.8 km/h 95 % 0.0 mm 0 W/m2
20:25 6.3 °C 5.4 °C 1019.5 hPa Calm   4.8 km/h 94 % 0.0 mm 0 W/m2
20:30 6.3 °C 5.5 °C 1019.5 hPa WSW 4.8 km/h 4.8 km/h 95 % 0.0 mm 0 W/m2
20:35 6.3 °C 5.6 °C 1019.5 hPa Calm   4.8 km/h 95 % 0.0 mm 0 W/m2
20:40 6.3 °C 5.6 °C 1019.5 hPa Calm   4.8 km/h 95 % 0.0 mm 0 W/m2
20:45 6.2 °C 5.5 °C 1019.9 hPa Calm   4.8 km/h 95 % 0.0 mm 0 W/m2
20:50 6.1 °C 5.3 °C 1019.9 hPa WSW 1.6 km/h 1.6 km/h 95 % 0.0 mm 0 W/m2
20:55 5.9 °C 5.2 °C 1019.9 hPa Calm   3.2 km/h 95 % 0.0 mm 0 W/m2
21:00 5.8 °C 5.1 °C 1019.9 hPa Calm   3.2 km/h 95 % 0.0 mm 0 W/m2
21:05 5.7 °C 5.1 °C 1019.9 hPa Calm   1.6 km/h 96 % 0.0 mm 0 W/m2
21:10 5.7 °C 5.1 °C 1019.9 hPa Calm     96 % 0.0 mm 0 W/m2
21:15 5.6 °C 5.0 °C 1019.9 hPa Calm   1.6 km/h 96 % 0.0 mm 0 W/m2
21:20 5.6 °C 5.0 °C 1019.9 hPa Calm   1.6 km/h 96 % 0.0 mm 0 W/m2
21:25 5.4 °C 4.8 °C 1019.9 hPa Calm   1.6 km/h 96 % 0.0 mm 0 W/m2
21:30 5.3 °C 4.7 °C 1019.9 hPa Calm   4.8 km/h 96 % 0.0 mm 0 W/m2
21:35 5.2 °C 4.6 °C 1019.9 hPa Calm   4.8 km/h 96 % 0.0 mm 0 W/m2
21:40 5.2 °C 4.6 °C 1019.9 hPa Calm   6.4 km/h 96 % 0.0 mm 0 W/m2
21:45 5.1 °C 4.5 °C 1019.9 hPa NW 4.8 km/h 6.4 km/h 96 % 0.0 mm 0 W/m2
21:50 5.1 °C 4.6 °C 1019.9 hPa NNW 4.8 km/h 8.0 km/h 97 % 0.0 mm 0 W/m2
21:55 5.1 °C 4.7 °C 1020.2 hPa NNW 9.7 km/h 9.7 km/h 97 % 0.0 mm 0 W/m2
22:00 5.3 °C 4.9 °C 1020.2 hPa NNW 3.2 km/h 14.5 km/h 97 % 0.0 mm 0 W/m2
22:05 5.5 °C 5.1 °C 1019.9 hPa NW 3.2 km/h 14.5 km/h 97 % 0.0 mm 0 W/m2
22:10 5.5 °C 5.1 °C 1019.9 hPa North 6.4 km/h 14.5 km/h 97 % 0.0 mm 0 W/m2
22:15 5.4 °C 5.0 °C 1019.9 hPa NNW 3.2 km/h 11.3 km/h 97 % 0.0 mm 0 W/m2
22:20 5.4 °C 5.0 °C 1020.2 hPa NNW 6.4 km/h 12.9 km/h 97 % 0.0 mm 0 W/m2
22:25 5.4 °C 5.0 °C 1020.2 hPa NNW 9.7 km/h 12.9 km/h 97 % 0.0 mm 0 W/m2
22:30 5.4 °C 4.8 °C 1020.2 hPa NNW 6.4 km/h 12.9 km/h 96 % 0.0 mm 0 W/m2
22:35 5.3 °C 4.7 °C 1020.5 hPa NW 3.2 km/h 11.3 km/h 96 % 0.0 mm 0 W/m2
22:40 5.2 °C 4.6 °C 1020.5 hPa NNW 4.8 km/h 11.3 km/h 96 % 0.0 mm 0 W/m2
22:45 5.1 °C 4.5 °C 1020.5 hPa NNW 3.2 km/h 9.7 km/h 96 % 0.0 mm 0 W/m2
22:50 4.9 °C 4.4 °C 1020.5 hPa North 6.4 km/h 11.3 km/h 96 % 0.0 mm 0 W/m2
22:55 4.8 °C 4.2 °C 1020.5 hPa North 1.6 km/h 11.3 km/h 96 % 0.0 mm 0 W/m2
23:00 4.9 °C 4.4 °C 1020.9 hPa Calm   14.5 km/h 96 % 0.0 mm 0 W/m2
23:05 4.9 °C 4.4 °C 1020.9 hPa North 12.9 km/h 14.5 km/h 96 % 0.0 mm 0 W/m2
23:10 4.9 °C 4.4 °C 1020.9 hPa NNW 4.8 km/h 14.5 km/h 96 % 0.0 mm 0 W/m2
23:15 4.9 °C 4.4 °C 1020.9 hPa NNW 8.0 km/h 14.5 km/h 96 % 0.0 mm 0 W/m2
23:20 5.0 °C 4.4 °C 1020.9 hPa NW 6.4 km/h 14.5 km/h 96 % 0.0 mm 0 W/m2
23:25 4.8 °C 4.2 °C 1020.9 hPa NW 1.6 km/h 12.9 km/h 96 % 0.0 mm 0 W/m2
23:30 4.8 °C 4.2 °C 1021.2 hPa NW 12.9 km/h 14.5 km/h 96 % 0.0 mm 0 W/m2
23:35 4.8 °C 4.2 °C 1021.2 hPa NW 3.2 km/h 14.5 km/h 96 % 0.0 mm 0 W/m2
23:45 4.7 °C 4.1 °C 1021.2 hPa WNW 8.0 km/h 12.9 km/h 96 % 0.0 mm 0 W/m2
23:50 4.6 °C 4.0 °C 1021.2 hPa NW 3.2 km/h 9.7 km/h 96 % 0.0 mm 0 W/m2
23:55 4.6 °C 4.0 °C 1021.2 hPa NNW 3.2 km/h 12.9 km/h 96 % 0.0 mm 0 W/m2
Avec l'autorisation de Weather Underground - 1.75 mb